sensor_id;sensor_type;location;lat;lon;timestamp;pressure;altitude;pressure_sealevel;temperature;humidity
49459;BME280;35354;51.296;16.924;2022-12-05T00:03:45;99951.09;;;1.71;100.00
49459;BME280;35354;51.296;16.924;2022-12-05T00:06:10;99945.13;;;1.69;100.00
49459;BME280;35354;51.296;16.924;2022-12-05T00:08:36;99934.00;;;1.67;100.00
49459;BME280;35354;51.296;16.924;2022-12-05T00:11:01;99940.84;;;1.66;100.00
49459;BME280;35354;51.296;16.924;2022-12-05T00:13:26;99949.38;;;1.73;100.00
49459;BME280;35354;51.296;16.924;2022-12-05T00:15:52;99957.09;;;1.73;100.00
49459;BME280;35354;51.296;16.924;2022-12-05T00:18:17;99928.03;;;1.65;100.00
49459;BME280;35354;51.296;16.924;2022-12-05T00:20:47;99945.97;;;1.66;100.00
49459;BME280;35354;51.296;16.924;2022-12-05T00:23:13;99930.63;;;1.60;100.00
49459;BME280;35354;51.296;16.924;2022-12-05T00:25:38;99933.19;;;1.59;100.00
49459;BME280;35354;51.296;16.924;2022-12-05T00:28:04;99936.59;;;1.62;100.00
49459;BME280;35354;51.296;16.924;2022-12-05T00:30:29;99928.91;;;1.59;100.00
49459;BME280;35354;51.296;16.924;2022-12-05T00:32:54;99927.22;;;1.57;100.00
49459;BME280;35354;51.296;16.924;2022-12-05T00:35:20;99931.50;;;1.52;100.00
49459;BME280;35354;51.296;16.924;2022-12-05T00:37:45;99940.88;;;1.62;100.00
49459;BME280;35354;51.296;16.924;2022-12-05T00:40:11;99929.78;;;1.55;100.00
49459;BME280;35354;51.296;16.924;2022-12-05T00:42:36;99937.44;;;1.60;100.00
49459;BME280;35354;51.296;16.924;2022-12-05T00:45:02;99954.56;;;1.65;100.00
49459;BME280;35354;51.296;16.924;2022-12-05T00:47:27;99944.31;;;1.59;100.00
49459;BME280;35354;51.296;16.924;2022-12-05T00:49:53;99943.44;;;1.59;100.00
49459;BME280;35354;51.296;16.924;2022-12-05T00:52:18;99944.28;;;1.64;100.00
49459;BME280;35354;51.296;16.924;2022-12-05T00:54:43;99927.22;;;1.55;100.00
49459;BME280;35354;51.296;16.924;2022-12-05T00:57:09;99941.75;;;1.61;100.00
49459;BME280;35354;51.296;16.924;2022-12-05T00:59:34;99935.72;;;1.63;100.00
49459;BME280;35354;51.296;16.924;2022-12-05T01:01:59;99939.97;;;1.64;100.00
49459;BME280;35354;51.296;16.924;2022-12-05T01:04:25;99939.19;;;1.61;100.00
49459;BME280;35354;51.296;16.924;2022-12-05T01:06:53;99941.72;;;1.65;100.00
49459;BME280;35354;51.296;16.924;2022-12-05T01:09:20;99953.66;;;1.69;100.00
49459;BME280;35354;51.296;16.924;2022-12-05T01:11:46;99951.13;;;1.65;100.00
49459;BME280;35354;51.296;16.924;2022-12-05T01:14:14;99948.53;;;1.69;100.00
49459;BME280;35354;51.296;16.924;2022-12-05T01:16:41;99935.72;;;1.66;100.00
49459;BME280;35354;51.296;16.924;2022-12-05T01:19:20;99950.22;;;1.72;100.00
49459;BME280;35354;51.296;16.924;2022-12-05T01:21:45;99939.97;;;1.69;100.00
49459;BME280;35354;51.296;16.924;2022-12-05T01:24:12;99947.63;;;1.75;100.00
49459;BME280;35354;51.296;16.924;2022-12-05T01:26:39;99935.69;;;1.69;100.00
49459;BME280;35354;51.296;16.924;2022-12-05T01:29:05;99927.97;;;1.74;100.00
49459;BME280;35354;51.296;16.924;2022-12-05T01:31:32;99945.06;;;1.77;100.00
49459;BME280;35354;51.296;16.924;2022-12-05T01:34:00;99939.97;;;1.70;100.00
49459;BME280;35354;51.296;16.924;2022-12-05T01:36:26;99953.66;;;1.74;100.00
49459;BME280;35354;51.296;16.924;2022-12-05T01:38:52;99949.34;;;1.74;100.00
49459;BME280;35354;51.296;16.924;2022-12-05T01:41:32;99959.59;;;1.76;100.00
49459;BME280;35354;51.296;16.924;2022-12-05T01:46:27;99934.88;;;1.63;100.00
49459;BME280;35354;51.296;16.924;2022-12-05T01:48:57;99933.16;;;1.65;100.00
49459;BME280;35354;51.296;16.924;2022-12-05T01:51:24;99951.06;;;1.75;100.00
49459;BME280;35354;51.296;16.924;2022-12-05T01:53:50;99937.41;;;1.69;100.00
49459;BME280;35354;51.296;16.924;2022-12-05T01:56:16;99928.81;;;1.71;100.00
49459;BME280;35354;51.296;16.924;2022-12-05T01:58:42;99925.41;;;1.71;100.00
49459;BME280;35354;51.296;16.924;2022-12-05T02:01:11;99913.47;;;1.65;100.00
49459;BME280;35354;51.296;16.924;2022-12-05T02:03:39;99938.22;;;1.72;100.00
49459;BME280;35354;51.296;16.924;2022-12-05T02:06:05;99925.38;;;1.72;100.00
49459;BME280;35354;51.296;16.924;2022-12-05T02:08:31;99916.00;;;1.70;100.00
49459;BME280;35354;51.296;16.924;2022-12-05T02:10:57;99916.94;;;1.58;100.00
49459;BME280;35354;51.296;16.924;2022-12-05T02:16:28;99936.59;;;1.62;100.00
49459;BME280;35354;51.296;16.924;2022-12-05T02:25:10;99931.47;;;1.58;100.00
49459;BME280;35354;51.296;16.924;2022-12-05T02:30:37;99930.66;;;1.51;100.00
49459;BME280;35354;51.296;16.924;2022-12-05T02:41:16;99926.41;;;1.48;100.00
49459;BME280;35354;51.296;16.924;2022-12-05T02:43:56;99940.94;;;1.53;100.00
49459;BME280;35354;51.296;16.924;2022-12-05T02:46:26;99916.16;;;1.44;100.00
49459;BME280;35354;51.296;16.924;2022-12-05T02:49:06;99932.38;;;1.47;100.00
49459;BME280;35354;51.296;16.924;2022-12-05T02:51:46;99913.59;;;1.42;100.00
49459;BME280;35354;51.296;16.924;2022-12-05T02:54:18;99907.63;;;1.40;100.00
49459;BME280;35354;51.296;16.924;2022-12-05T02:56:46;99907.63;;;1.43;100.00
49459;BME280;35354;51.296;16.924;2022-12-05T02:59:13;99907.59;;;1.45;100.00
49459;BME280;35354;51.296;16.924;2022-12-05T03:01:38;99907.56;;;1.49;100.00
49459;BME280;35354;51.296;16.924;2022-12-05T03:04:05;99907.59;;;1.48;100.00
49459;BME280;35354;51.296;16.924;2022-12-05T03:06:42;99917.84;;;1.46;100.00
49459;BME280;35354;51.296;16.924;2022-12-05T03:09:15;99906.75;;;1.41;100.00
49459;BME280;35354;51.296;16.924;2022-12-05T03:11:46;99923.81;;;1.52;100.00
49459;BME280;35354;51.296;16.924;2022-12-05T03:14:20;99912.72;;;1.48;100.00
49459;BME280;35354;51.296;16.924;2022-12-05T03:16:51;99906.72;;;1.46;100.00
49459;BME280;35354;51.296;16.924;2022-12-05T03:19:44;99932.38;;;1.52;100.00
49459;BME280;35354;51.296;16.924;2022-12-05T03:22:22;99925.50;;;1.51;100.00
49459;BME280;35354;51.296;16.924;2022-12-05T03:24:50;99916.13;;;1.47;100.00
49459;BME280;35354;51.296;16.924;2022-12-05T03:30:15;99919.53;;;1.50;100.00
49459;BME280;35354;51.296;16.924;2022-12-05T03:33:01;99911.84;;;1.49;100.00
49459;BME280;35354;51.296;16.924;2022-12-05T03:35:42;99911.84;;;1.49;100.00
49459;BME280;35354;51.296;16.924;2022-12-05T03:38:12;99909.31;;;1.44;100.00
49459;BME280;35354;51.296;16.924;2022-12-05T03:41:08;99909.28;;;1.49;100.00
49459;BME280;35354;51.296;16.924;2022-12-05T03:51:57;99889.66;;;1.37;100.00
49459;BME280;35354;51.296;16.924;2022-12-05T03:54:30;99893.94;;;1.41;100.00
49459;BME280;35354;51.296;16.924;2022-12-05T03:57:04;99892.22;;;1.39;100.00
49459;BME280;35354;51.296;16.924;2022-12-05T03:59:56;99899.91;;;1.45;100.00
49459;BME280;35354;51.296;16.924;2022-12-05T04:05:04;99887.13;;;1.36;100.00
49459;BME280;35354;51.296;16.924;2022-12-05T04:07:33;99887.06;;;1.39;100.00
49459;BME280;35354;51.296;16.924;2022-12-05T04:10:04;99894.78;;;1.42;100.00
49459;BME280;35354;51.296;16.924;2022-12-05T04:12:33;99894.78;;;1.39;100.00
49459;BME280;35354;51.296;16.924;2022-12-05T04:15:03;99901.63;;;1.40;100.00
49459;BME280;35354;51.296;16.924;2022-12-05T04:17:45;99899.91;;;1.45;100.00
49459;BME280;35354;51.296;16.924;2022-12-05T04:20:36;99902.47;;;1.43;100.00
49459;BME280;35354;51.296;16.924;2022-12-05T04:23:22;99885.38;;;1.38;100.00
49459;BME280;35354;51.296;16.924;2022-12-05T04:28:39;99899.06;;;1.44;100.00
49459;BME280;35354;51.296;16.924;2022-12-05T04:31:14;99887.91;;;1.42;100.00
49459;BME280;35354;51.296;16.924;2022-12-05T04:33:56;99899.06;;;1.41;100.00
49459;BME280;35354;51.296;16.924;2022-12-05T04:36:32;99903.34;;;1.41;100.00
49459;BME280;35354;51.296;16.924;2022-12-05T04:39:05;99894.78;;;1.42;100.00
49459;BME280;35354;51.296;16.924;2022-12-05T04:41:42;99896.50;;;1.40;100.00
49459;BME280;35354;51.296;16.924;2022-12-05T04:44:11;99876.88;;;1.30;100.00
49459;BME280;35354;51.296;16.924;2022-12-05T04:46:39;99892.22;;;1.42;100.00
49459;BME280;35354;51.296;16.924;2022-12-05T04:49:10;99886.25;;;1.34;100.00
49459;BME280;35354;51.296;16.924;2022-12-05T04:51:37;99879.44;;;1.31;100.00
49459;BME280;35354;51.296;16.924;2022-12-05T04:54:15;99882.81;;;1.38;100.00
49459;BME280;35354;51.296;16.924;2022-12-05T04:56:44;99897.34;;;1.42;100.00
49459;BME280;35354;51.296;16.924;2022-12-05T04:59:10;99891.41;;;1.35;100.00
49459;BME280;35354;51.296;16.924;2022-12-05T05:01:40;99904.19;;;1.38;100.00
49459;BME280;35354;51.296;16.924;2022-12-05T05:04:14;99898.22;;;1.36;100.00
49459;BME280;35354;51.296;16.924;2022-12-05T05:06:41;99912.75;;;1.39;100.00
49459;BME280;35354;51.296;16.924;2022-12-05T05:09:08;99914.44;;;1.46;100.00
49459;BME280;35354;51.296;16.924;2022-12-05T05:11:35;99906.75;;;1.38;100.00
49459;BME280;35354;51.296;16.924;2022-12-05T05:14:01;99896.50;;;1.38;100.00
49459;BME280;35354;51.296;16.924;2022-12-05T05:16:37;99901.63;;;1.38;100.00
49459;BME280;35354;51.296;16.924;2022-12-05T05:19:04;99916.97;;;1.47;100.00
49459;BME280;35354;51.296;16.924;2022-12-05T05:21:35;99899.91;;;1.42;100.00
49459;BME280;35354;51.296;16.924;2022-12-05T05:24:01;99887.06;;;1.45;100.00
49459;BME280;35354;51.296;16.924;2022-12-05T05:26:28;99890.44;;;1.50;100.00
49459;BME280;35354;51.296;16.924;2022-12-05T05:28:56;99895.56;;;1.53;100.00
49459;BME280;35354;51.296;16.924;2022-12-05T05:31:22;99897.25;;;1.56;100.00
49459;BME280;35354;51.296;16.924;2022-12-05T05:33:52;99913.53;;;1.56;100.00
49459;BME280;35354;51.296;16.924;2022-12-05T05:36:19;99905.84;;;1.52;100.00
49459;BME280;35354;51.296;16.924;2022-12-05T05:38:47;99898.16;;;1.47;100.00
49459;BME280;35354;51.296;16.924;2022-12-05T05:41:14;99922.06;;;1.58;100.00
49459;BME280;35354;51.296;16.924;2022-12-05T05:43:41;99905.84;;;1.53;100.00
49459;BME280;35354;51.296;16.924;2022-12-05T05:46:07;99925.50;;;1.57;100.00
49459;BME280;35354;51.296;16.924;2022-12-05T05:48:33;99927.19;;;1.58;100.00
49459;BME280;35354;51.296;16.924;2022-12-05T05:50:59;99920.38;;;1.51;100.00
49459;BME280;35354;51.296;16.924;2022-12-05T05:53:25;99920.41;;;1.49;100.00
49459;BME280;35354;51.296;16.924;2022-12-05T05:55:50;99917.78;;;1.59;100.00
49459;BME280;35354;51.296;16.924;2022-12-05T05:58:15;99913.53;;;1.56;100.00
49459;BME280;35354;51.296;16.924;2022-12-05T06:00:41;99918.66;;;1.58;100.00
49459;BME280;35354;51.296;16.924;2022-12-05T06:03:06;99924.59;;;1.63;100.00
49459;BME280;35354;51.296;16.924;2022-12-05T06:05:32;99924.59;;;1.66;100.00
49459;BME280;35354;51.296;16.924;2022-12-05T06:07:57;99917.75;;;1.65;100.00
49459;BME280;35354;51.296;16.924;2022-12-05T06:10:22;99920.34;;;1.60;100.00
49459;BME280;35354;51.296;16.924;2022-12-05T06:12:48;99919.44;;;1.67;100.00
49459;BME280;35354;51.296;16.924;2022-12-05T06:15:13;99910.03;;;1.63;100.00
49459;BME280;35354;51.296;16.924;2022-12-05T06:17:38;99901.50;;;1.60;100.00
49459;BME280;35354;51.296;16.924;2022-12-05T06:20:05;99904.91;;;1.66;100.00
49459;BME280;35354;51.296;16.924;2022-12-05T06:22:31;99903.22;;;1.61;100.00
49459;BME280;35354;51.296;16.924;2022-12-05T06:24:57;99906.69;;;1.57;100.00
49459;BME280;35354;51.296;16.924;2022-12-05T06:27:22;99913.50;;;1.59;100.00
49459;BME280;35354;51.296;16.924;2022-12-05T06:29:48;99907.53;;;1.51;100.00
49459;BME280;35354;51.296;16.924;2022-12-05T06:32:13;99922.13;;;1.49;100.00
49459;BME280;35354;51.296;16.924;2022-12-05T06:34:38;99910.19;;;1.43;100.00
49459;BME280;35354;51.296;16.924;2022-12-05T06:37:04;99920.44;;;1.43;100.00
49459;BME280;35354;51.296;16.924;2022-12-05T06:39:29;99923.84;;;1.45;100.00
49459;BME280;35354;51.296;16.924;2022-12-05T06:41:55;99917.88;;;1.45;100.00
49459;BME280;35354;51.296;16.924;2022-12-05T06:44:20;99902.53;;;1.36;100.00
49459;BME280;35354;51.296;16.924;2022-12-05T06:46:47;99919.53;;;1.47;100.00
49459;BME280;35354;51.296;16.924;2022-12-05T06:49:12;99909.34;;;1.40;100.00
49459;BME280;35354;51.296;16.924;2022-12-05T06:51:37;99914.47;;;1.40;100.00
49459;BME280;35354;51.296;16.924;2022-12-05T06:54:03;99916.16;;;1.44;100.00
49459;BME280;35354;51.296;16.924;2022-12-05T06:56:29;99914.44;;;1.44;100.00
49459;BME280;35354;51.296;16.924;2022-12-05T06:58:54;99906.75;;;1.44;100.00
49459;BME280;35354;51.296;16.924;2022-12-05T07:01:21;99898.19;;;1.44;100.00
49459;BME280;35354;51.296;16.924;2022-12-05T07:04:04;99907.56;;;1.46;100.00
49459;BME280;35354;51.296;16.924;2022-12-05T07:06:29;99903.31;;;1.45;100.00
49459;BME280;35354;51.296;16.924;2022-12-05T07:08:55;99887.94;;;1.44;100.00
49459;BME280;35354;51.296;16.924;2022-12-05T07:11:20;99888.75;;;1.47;100.00
49459;BME280;35354;51.296;16.924;2022-12-05T07:13:46;99883.66;;;1.44;100.00
49459;BME280;35354;51.296;16.924;2022-12-05T07:16:11;99898.97;;;1.55;100.00
49459;BME280;35354;51.296;16.924;2022-12-05T07:18:37;99894.69;;;1.54;100.00
49459;BME280;35354;51.296;16.924;2022-12-05T07:21:05;99889.56;;;1.51;100.00
49459;BME280;35354;51.296;16.924;2022-12-05T07:23:30;99894.69;;;1.54;100.00
49459;BME280;35354;51.296;16.924;2022-12-05T07:25:56;99896.41;;;1.55;100.00
49459;BME280;35354;51.296;16.924;2022-12-05T07:28:22;99887.03;;;1.49;100.00
49459;BME280;35354;51.296;16.924;2022-12-05T07:30:48;99910.09;;;1.57;100.00
49459;BME280;35354;51.296;16.924;2022-12-05T07:33:13;99901.53;;;1.57;100.00
49459;BME280;35354;51.296;16.924;2022-12-05T07:35:38;99899.88;;;1.49;100.00
49459;BME280;35354;51.296;16.924;2022-12-05T07:38:04;99899.88;;;1.49;100.00
49459;BME280;35354;51.296;16.924;2022-12-05T07:40:29;99908.34;;;1.59;100.00
49459;BME280;35354;51.296;16.924;2022-12-05T07:42:54;99892.16;;;1.49;100.00
49459;BME280;35354;51.296;16.924;2022-12-05T07:45:20;99909.22;;;1.61;100.00
49459;BME280;35354;51.296;16.924;2022-12-05T07:47:46;99909.19;;;1.60;100.00
49459;BME280;35354;51.296;16.924;2022-12-05T07:50:11;99918.63;;;1.61;100.00
49459;BME280;35354;51.296;16.924;2022-12-05T07:52:37;99910.06;;;1.62;100.00
49459;BME280;35354;51.296;16.924;2022-12-05T07:55:03;99913.50;;;1.59;100.00
49459;BME280;35354;51.296;16.924;2022-12-05T07:57:29;99915.25;;;1.54;100.00
49459;BME280;35354;51.296;16.924;2022-12-05T07:59:54;99931.47;;;1.61;100.00
49459;BME280;35354;51.296;16.924;2022-12-05T08:02:20;99928.91;;;1.59;100.00
49459;BME280;35354;51.296;16.924;2022-12-05T08:04:45;99909.25;;;1.50;100.00
49459;BME280;35354;51.296;16.924;2022-12-05T08:07:11;99927.22;;;1.55;100.00
49459;BME280;35354;51.296;16.924;2022-12-05T08:09:36;99926.34;;;1.58;100.00
49459;BME280;35354;51.296;16.924;2022-12-05T08:12:02;99929.75;;;1.58;100.00
49459;BME280;35354;51.296;16.924;2022-12-05T08:14:27;99921.25;;;1.50;100.00
49459;BME280;35354;51.296;16.924;2022-12-05T08:16:52;99928.06;;;1.54;100.00
49459;BME280;35354;51.296;16.924;2022-12-05T08:19:18;99940.91;;;1.60;100.00
49459;BME280;35354;51.296;16.924;2022-12-05T08:21:43;99939.97;;;1.64;100.00
49459;BME280;35354;51.296;16.924;2022-12-05T08:24:09;99946.84;;;1.65;100.00
49459;BME280;35354;51.296;16.924;2022-12-05T08:26:35;99936.59;;;1.62;100.00
49459;BME280;35354;51.296;16.924;2022-12-05T08:31:28;99940.88;;;1.62;100.00
49459;BME280;35354;51.296;16.924;2022-12-05T08:33:55;99940.00;;;1.63;100.00
49459;BME280;35354;51.296;16.924;2022-12-05T08:36:21;99936.56;;;1.65;100.00
49459;BME280;35354;51.296;16.924;2022-12-05T08:38:46;99934.84;;;1.64;100.00
49459;BME280;35354;51.296;16.924;2022-12-05T08:41:14;99928.91;;;1.59;100.00
49459;BME280;35354;51.296;16.924;2022-12-05T08:43:41;99947.69;;;1.66;100.00
49459;BME280;35354;51.296;16.924;2022-12-05T08:46:07;99943.38;;;1.71;100.00
49459;BME280;35354;51.296;16.924;2022-12-05T08:48:33;99947.66;;;1.70;100.00
49459;BME280;35354;51.296;16.924;2022-12-05T08:51:04;99948.53;;;1.71;100.00
49459;BME280;35354;51.296;16.924;2022-12-05T08:53:30;99956.19;;;1.72;100.00
49459;BME280;35354;51.296;16.924;2022-12-05T08:55:59;99937.47;;;1.61;100.00
49459;BME280;35354;51.296;16.924;2022-12-05T08:58:24;99947.66;;;1.72;100.00
49459;BME280;35354;51.296;16.924;2022-12-05T09:00:50;99947.69;;;1.69;100.00
49459;BME280;35354;51.296;16.924;2022-12-05T09:03:15;99958.75;;;1.75;100.00
49459;BME280;35354;51.296;16.924;2022-12-05T09:05:40;99942.53;;;1.73;100.00
49459;BME280;35354;51.296;16.924;2022-12-05T09:08:06;99939.97;;;1.73;100.00
49459;BME280;35354;51.296;16.924;2022-12-05T09:10:31;99948.47;;;1.79;100.00
49459;BME280;35354;51.296;16.924;2022-12-05T09:12:57;99938.19;;;1.82;100.00
49459;BME280;35354;51.296;16.924;2022-12-05T09:15:22;99919.38;;;1.77;100.00
49459;BME280;35354;51.296;16.924;2022-12-05T09:17:47;99927.91;;;1.82;100.00
49459;BME280;35354;51.296;16.924;2022-12-05T09:20:13;99905.72;;;1.74;100.00
49459;BME280;35354;51.296;16.924;2022-12-05T09:22:39;99915.88;;;1.85;100.00
49459;BME280;35354;51.296;16.924;2022-12-05T09:25:05;99914.19;;;1.87;100.00
49459;BME280;35354;51.296;16.924;2022-12-05T09:27:31;99916.75;;;1.87;100.00
49459;BME280;35354;51.296;16.924;2022-12-05T09:29:56;99912.44;;;1.94;100.00
49459;BME280;35354;51.296;16.924;2022-12-05T09:32:22;99891.09;;;1.86;100.00
49459;BME280;35354;51.296;16.924;2022-12-05T09:34:47;99915.81;;;1.99;100.00
49459;BME280;35354;51.296;16.924;2022-12-05T09:37:12;99915.75;;;2.07;100.00
49459;BME280;35354;51.296;16.924;2022-12-05T09:39:38;99906.34;;;2.04;100.00
49459;BME280;35354;51.296;16.924;2022-12-05T09:48:11;99910.53;;;2.14;100.00
49459;BME280;35354;51.296;16.924;2022-12-05T09:50:55;99913.16;;;2.11;100.00
49459;BME280;35354;51.296;16.924;2022-12-05T09:53:36;99914.88;;;2.08;100.00
49459;BME280;35354;51.296;16.924;2022-12-05T10:01:35;99890.06;;;2.05;100.00
49459;BME280;35354;51.296;16.924;2022-12-05T10:15:39;99907.84;;;2.27;100.00
49459;BME280;35354;51.296;16.924;2022-12-05T10:18:40;99895.84;;;2.30;100.00
49459;BME280;35354;51.296;16.924;2022-12-05T10:21:11;99899.22;;;2.37;100.00
49459;BME280;35354;51.296;16.924;2022-12-05T10:23:39;99894.84;;;2.43;100.00
49459;BME280;35354;51.296;16.924;2022-12-05T10:26:08;99878.63;;;2.38;100.00
49459;BME280;35354;51.296;16.924;2022-12-05T10:28:40;99881.16;;;2.40;100.00
49459;BME280;35354;51.296;16.924;2022-12-05T10:31:09;99870.88;;;2.40;100.00
49459;BME280;35354;51.296;16.924;2022-12-05T10:33:39;99874.34;;;2.39;100.00
49459;BME280;35354;51.296;16.924;2022-12-05T10:36:13;99885.44;;;2.42;100.00
49459;BME280;35354;51.296;16.924;2022-12-05T10:38:41;99881.19;;;2.38;100.00
49459;BME280;35354;51.296;16.924;2022-12-05T10:41:10;99883.75;;;2.40;100.00
49459;BME280;35354;51.296;16.924;2022-12-05T10:43:39;99884.66;;;2.37;100.00
49459;BME280;35354;51.296;16.924;2022-12-05T10:46:05;99890.59;;;2.39;100.00
49459;BME280;35354;51.296;16.924;2022-12-05T10:48:34;99895.75;;;2.39;100.00
49459;BME280;35354;51.296;16.924;2022-12-05T10:51:00;99893.16;;;2.42;100.00
49459;BME280;35354;51.296;16.924;2022-12-05T10:53:28;99893.13;;;2.45;100.00
49459;BME280;35354;51.296;16.924;2022-12-05T10:55:55;99893.09;;;2.47;100.00
49459;BME280;35354;51.296;16.924;2022-12-05T10:58:25;99897.38;;;2.49;100.00
49459;BME280;35354;51.296;16.924;2022-12-05T11:00:53;99898.19;;;2.55;100.00
49459;BME280;35354;51.296;16.924;2022-12-05T11:03:26;99914.47;;;2.54;100.00
49459;BME280;35354;51.296;16.924;2022-12-05T11:05:54;99892.16;;;2.56;100.00
49459;BME280;35354;51.296;16.924;2022-12-05T11:08:22;99884.53;;;2.46;100.00
49459;BME280;35354;51.296;16.924;2022-12-05T11:10:48;99880.25;;;2.47;100.00
49459;BME280;35354;51.296;16.924;2022-12-05T11:13:16;99891.31;;;2.55;100.00
49459;BME280;35354;51.296;16.924;2022-12-05T11:15:47;99886.22;;;2.50;100.00
49459;BME280;35354;51.296;16.924;2022-12-05T11:18:27;99896.44;;;2.57;100.00
49459;BME280;35354;51.296;16.924;2022-12-05T11:20:54;99893.88;;;2.58;100.00
49459;BME280;35354;51.296;16.924;2022-12-05T11:23:28;99888.78;;;2.54;100.00
49459;BME280;35354;51.296;16.924;2022-12-05T11:25:55;99875.91;;;2.52;100.00
49459;BME280;35354;51.296;16.924;2022-12-05T11:30:57;99892.09;;;2.63;100.00
49459;BME280;35354;51.296;16.924;2022-12-05T11:33:26;99861.38;;;2.51;100.00
49459;BME280;35354;51.296;16.924;2022-12-05T11:35:54;99875.84;;;2.60;100.00
49459;BME280;35354;51.296;16.924;2022-12-05T11:38:25;99875.00;;;2.59;100.00
49459;BME280;35354;51.296;16.924;2022-12-05T11:54:24;99863.72;;;2.71;100.00
49459;BME280;35354;51.296;16.924;2022-12-05T11:57:17;99868.84;;;2.72;100.00
49459;BME280;35354;51.296;16.924;2022-12-05T12:00:25;99868.81;;;2.75;100.00
49459;BME280;35354;51.296;16.924;2022-12-05T12:06:21;99856.81;;;2.73;100.00
49459;BME280;35354;51.296;16.924;2022-12-05T12:11:37;99867.19;;;2.67;100.00
49459;BME280;35354;51.296;16.924;2022-12-05T12:14:25;99869.75;;;2.70;100.00
49459;BME280;35354;51.296;16.924;2022-12-05T12:23:03;99851.81;;;2.61;100.00
49459;BME280;35354;51.296;16.924;2022-12-05T12:28:38;99854.31;;;2.70;100.00
49459;BME280;35354;51.296;16.924;2022-12-05T12:33:52;99844.06;;;2.64;100.00
49459;BME280;35354;51.296;16.924;2022-12-05T12:39:32;99850.00;;;2.69;100.00
49459;BME280;35354;51.296;16.924;2022-12-05T12:42:24;99856.88;;;2.68;100.00
49459;BME280;35354;51.296;16.924;2022-12-05T12:45:01;99859.47;;;2.70;100.00
49459;BME280;35354;51.296;16.924;2022-12-05T12:50:17;99854.31;;;2.68;100.00
49459;BME280;35354;51.296;16.924;2022-12-05T12:52:56;99844.94;;;2.64;100.00
49459;BME280;35354;51.296;16.924;2022-12-05T13:06:26;99855.16;;;2.70;100.00
49459;BME280;35354;51.296;16.924;2022-12-05T13:08:53;99862.81;;;2.73;100.00
49459;BME280;35354;51.296;16.924;2022-12-05T13:11:21;99845.81;;;2.63;100.00
49459;BME280;35354;51.296;16.924;2022-12-05T13:13:55;99865.44;;;2.70;100.00
49459;BME280;35354;51.296;16.924;2022-12-05T13:16:25;99852.59;;;2.69;100.00
49459;BME280;35354;51.296;16.924;2022-12-05T13:18:53;99855.16;;;2.69;100.00
49459;BME280;35354;51.296;16.924;2022-12-05T13:21:20;99847.50;;;2.66;100.00
49459;BME280;35354;51.296;16.924;2022-12-05T13:23:53;99861.22;;;2.66;100.00
49459;BME280;35354;51.296;16.924;2022-12-05T13:26:27;99856.88;;;2.68;100.00
49459;BME280;35354;51.296;16.924;2022-12-05T13:28:58;99861.97;;;2.73;100.00
49459;BME280;35354;51.296;16.924;2022-12-05T13:31:35;99858.53;;;2.75;100.00
49459;BME280;35354;51.296;16.924;2022-12-05T13:34:01;99852.56;;;2.72;100.00
49459;BME280;35354;51.296;16.924;2022-12-05T13:36:27;99867.06;;;2.78;100.00
49459;BME280;35354;51.296;16.924;2022-12-05T13:39:18;99865.34;;;2.78;100.00
49459;BME280;35354;51.296;16.924;2022-12-05T13:42:03;99830.34;;;2.66;100.00
49459;BME280;35354;51.296;16.924;2022-12-05T13:44:52;99862.75;;;2.78;100.00
49459;BME280;35354;51.296;16.924;2022-12-05T13:47:26;99858.50;;;2.79;100.00
49459;BME280;35354;51.296;16.924;2022-12-05T13:50:09;99859.34;;;2.79;100.00
49459;BME280;35354;51.296;16.924;2022-12-05T13:52:43;99859.28;;;2.82;100.00
49459;BME280;35354;51.296;16.924;2022-12-05T13:57:47;99866.09;;;2.88;100.00
49459;BME280;35354;51.296;16.924;2022-12-05T14:10:20;99866.16;;;2.83;100.00
49459;BME280;35354;51.296;16.924;2022-12-05T14:12:51;99860.97;;;2.85;100.00
49459;BME280;35354;51.296;16.924;2022-12-05T14:15:33;99867.81;;;2.87;100.00
49459;BME280;35354;51.296;16.924;2022-12-05T14:18:21;99876.38;;;2.89;100.00
49459;BME280;35354;51.296;16.924;2022-12-05T14:21:16;99868.69;;;2.85;100.00
49459;BME280;35354;51.296;16.924;2022-12-05T14:26:39;99872.91;;;2.92;100.00
49459;BME280;35354;51.296;16.924;2022-12-05T14:32:32;99870.41;;;2.86;100.00
49459;BME280;35354;51.296;16.924;2022-12-05T14:35:03;99854.13;;;2.87;100.00
49459;BME280;35354;51.296;16.924;2022-12-05T14:37:32;99848.03;;;2.92;100.00
49459;BME280;35354;51.296;16.924;2022-12-05T14:40:00;99845.59;;;2.80;100.00
49459;BME280;35354;51.296;16.924;2022-12-05T14:42:34;99849.81;;;2.86;100.00
49459;BME280;35354;51.296;16.924;2022-12-05T14:45:02;99844.63;;;2.90;100.00
49459;BME280;35354;51.296;16.924;2022-12-05T14:47:49;99855.72;;;2.95;100.00
49459;BME280;35354;51.296;16.924;2022-12-05T14:50:35;99861.78;;;2.91;100.00
49459;BME280;35354;51.296;16.924;2022-12-05T14:55:39;99859.97;;;2.98;100.00
49459;BME280;35354;51.296;16.924;2022-12-05T15:06:56;99874.53;;;3.00;100.00
49459;BME280;35354;51.296;16.924;2022-12-05T15:12:47;99877.97;;;2.98;100.00
49459;BME280;35354;51.296;16.924;2022-12-05T15:18:00;99866.97;;;2.87;100.00
49459;BME280;35354;51.296;16.924;2022-12-05T15:20:41;99887.47;;;2.93;100.00
49459;BME280;35354;51.296;16.924;2022-12-05T15:23:45;99892.50;;;3.02;100.00
49459;BME280;35354;51.296;16.924;2022-12-05T15:26:15;99880.44;;;3.07;100.00
49459;BME280;35354;51.296;16.924;2022-12-05T15:29:05;99872.78;;;3.01;100.00
49459;BME280;35354;51.296;16.924;2022-12-05T15:31:37;99879.72;;;2.96;100.00
49459;BME280;35354;51.296;16.924;2022-12-05T15:34:15;99874.50;;;3.02;100.00
49459;BME280;35354;51.296;16.924;2022-12-05T15:36:46;99865.06;;;3.04;100.00
49459;BME280;35354;51.296;16.924;2022-12-05T15:39:23;99873.50;;;3.14;100.00